createdAt,value
2019-02-27T00:00:22.657Z,5.40
2019-02-27T00:02:51.095Z,5.30
2019-02-27T00:05:19.407Z,4.80
2019-02-27T00:07:47.731Z,4.53
2019-02-27T00:10:16.240Z,4.80
2019-02-27T00:12:44.573Z,5.42
2019-02-27T00:15:13.058Z,4.70
2019-02-27T00:17:41.390Z,4.65
2019-02-27T00:20:09.708Z,4.87
2019-02-27T00:22:38.393Z,4.92
2019-02-27T00:25:07.133Z,5.67
2019-02-27T00:27:35.469Z,4.97
2019-02-27T00:30:05.756Z,5.30
2019-02-27T00:32:34.120Z,5.55
2019-02-27T00:35:06.434Z,7.08
2019-02-27T00:37:32.540Z,5.35
2019-02-27T00:40:05.359Z,5.17
2019-02-27T00:42:33.823Z,5.00
2019-02-27T00:45:01.679Z,4.45
2019-02-27T00:47:30.346Z,5.25
2019-02-27T00:49:58.685Z,5.20
2019-02-27T00:52:26.989Z,5.28
2019-02-27T00:54:55.571Z,4.15
2019-02-27T00:57:23.897Z,4.78
2019-02-27T00:59:52.274Z,4.72
2019-02-27T01:02:20.866Z,4.70
2019-02-27T01:04:51.944Z,5.22
2019-02-27T01:07:21.324Z,4.85
2019-02-27T01:09:50.045Z,4.87
2019-02-27T01:12:18.385Z,4.87
2019-02-27T01:14:46.977Z,4.70
2019-02-27T01:17:15.572Z,4.62
2019-02-27T01:19:44.252Z,4.75
2019-02-27T01:22:12.788Z,4.87
2019-02-27T01:24:41.102Z,4.62
2019-02-27T01:27:09.412Z,5.00
2019-02-27T01:29:37.737Z,4.80
2019-02-27T01:32:06.511Z,4.60
2019-02-27T01:34:34.954Z,4.35
2019-02-27T01:37:03.316Z,4.00
2019-02-27T01:39:31.644Z,4.00
2019-02-27T01:42:00.028Z,3.60
2019-02-27T01:44:28.385Z,4.60
2019-02-27T01:47:01.831Z,4.05
2019-02-27T01:49:26.992Z,4.28
2019-02-27T01:51:55.868Z,4.22
2019-02-27T01:54:24.205Z,4.30
2019-02-27T01:56:52.791Z,3.92
2019-02-27T01:59:21.554Z,4.08
2019-02-27T02:01:49.926Z,4.50
2019-02-27T02:04:20.260Z,5.05
2019-02-27T02:06:48.372Z,4.33
2019-02-27T02:09:33.937Z,3.90
2019-02-27T02:12:14.797Z,3.90
2019-02-27T02:14:54.369Z,3.92
2019-02-27T02:17:59.502Z,4.12
2019-02-27T02:20:47.685Z,3.90
2019-02-27T02:23:30.627Z,4.45
2019-02-27T02:26:24.905Z,4.33
2019-02-27T02:29:17.878Z,3.98
2019-02-27T02:31:49.418Z,3.87
2019-02-27T02:34:43.590Z,4.12
2019-02-27T02:37:20.758Z,4.17
2019-02-27T02:40:22.709Z,4.25
2019-02-27T02:43:21.462Z,3.80
2019-02-27T02:46:07.990Z,4.20
2019-02-27T02:48:44.555Z,4.05
2019-02-27T02:51:19.149Z,3.98
2019-02-27T02:54:24.683Z,4.10
2019-02-27T02:57:00.178Z,4.00
2019-02-27T03:00:00.121Z,3.83
2019-02-27T03:02:57.674Z,3.37
2019-02-27T03:05:43.589Z,3.65
2019-02-27T03:08:27.378Z,3.70
2019-02-27T03:11:19.091Z,4.28
2019-02-27T03:14:18.629Z,4.00
2019-02-27T03:16:50.377Z,3.80
2019-02-27T03:19:41.782Z,3.87
2019-02-27T03:22:16.659Z,3.83
2019-02-27T03:25:08.174Z,4.10
2019-02-27T03:27:51.837Z,3.47
2019-02-27T03:30:33.745Z,3.65
2019-02-27T03:32:56.782Z,3.42
2019-02-27T03:35:42.755Z,3.70
2019-02-27T03:38:29.315Z,3.52
2019-02-27T03:41:22.470Z,3.40
2019-02-27T03:44:01.271Z,3.45
2019-02-27T03:46:42.009Z,3.95
2019-02-27T03:49:25.846Z,3.58
2019-02-27T03:52:03.103Z,3.60
2019-02-27T03:54:48.534Z,3.50
2019-02-27T03:57:23.053Z,3.70
2019-02-27T04:00:00.598Z,3.65
2019-02-27T04:03:00.956Z,3.35
2019-02-27T04:05:50.764Z,4.08
2019-02-27T04:08:34.567Z,3.70
2019-02-27T04:11:06.056Z,3.98
2019-02-27T04:13:33.166Z,3.60
2019-02-27T04:16:01.681Z,3.50
2019-02-27T04:18:29.096Z,3.72
2019-02-27T04:20:57.439Z,3.25
2019-02-27T04:23:26.017Z,4.08
2019-02-27T04:25:54.400Z,3.83
2019-02-27T04:28:22.726Z,3.40
2019-02-27T04:30:51.985Z,3.98
2019-02-27T04:33:23.172Z,3.95
2019-02-27T04:35:50.866Z,4.42
2019-02-27T04:38:19.628Z,3.42
2019-02-27T04:40:47.961Z,3.60
2019-02-27T04:43:16.286Z,3.22
2019-02-27T04:45:46.747Z,3.67
2019-02-27T04:48:14.845Z,4.05
2019-02-27T04:50:44.143Z,3.90
2019-02-27T04:53:13.366Z,4.08
2019-02-27T04:55:42.132Z,3.30
2019-02-27T04:58:10.440Z,4.22
2019-02-27T05:00:39.021Z,4.65
2019-02-27T05:03:07.369Z,3.92
2019-02-27T05:05:36.172Z,3.85
2019-02-27T05:08:04.985Z,4.10
2019-02-27T05:10:33.916Z,4.08
2019-02-27T05:13:02.575Z,5.00
2019-02-27T05:15:31.224Z,4.83
2019-02-27T05:17:59.551Z,4.28
2019-02-27T05:20:28.044Z,4.20
2019-02-27T05:23:00.078Z,3.50
2019-02-27T05:25:26.510Z,4.55
2019-02-27T05:27:55.077Z,4.42
2019-02-27T05:30:23.501Z,5.05
2019-02-27T05:32:52.085Z,4.90
2019-02-27T05:35:23.587Z,5.42
2019-02-27T05:37:50.620Z,5.75
2019-02-27T05:40:19.008Z,4.42
2019-02-27T05:42:47.325Z,4.70
2019-02-27T05:45:16.105Z,3.80
2019-02-27T05:47:45.877Z,4.58
2019-02-27T05:50:14.409Z,4.67
2019-02-27T05:52:42.981Z,4.58
2019-02-27T05:55:11.468Z,4.87
2019-02-27T05:57:40.060Z,4.90
2019-02-27T06:00:13.884Z,4.92
2019-02-27T06:02:44.886Z,4.37
2019-02-27T06:05:12.658Z,4.72
2019-02-27T06:07:40.987Z,4.05
2019-02-27T06:10:19.761Z,4.45
2019-02-27T06:12:47.893Z,3.83
2019-02-27T06:15:17.646Z,3.70
2019-02-27T06:17:48.846Z,3.77
2019-02-27T06:20:16.453Z,4.30
2019-02-27T06:22:45.000Z,4.25
2019-02-27T06:25:21.638Z,5.20
2019-02-27T06:30:17.831Z,5.05
2019-02-27T06:32:46.137Z,4.58
2019-02-27T06:35:15.071Z,4.35
2019-02-27T06:37:43.380Z,6.42
2019-02-27T06:40:18.612Z,5.55
2019-02-27T06:42:46.929Z,5.03
2019-02-27T06:45:16.509Z,5.50
2019-02-27T06:47:45.117Z,6.62
2019-02-27T06:50:15.073Z,7.83
2019-02-27T06:52:43.419Z,7.40
2019-02-27T06:55:13.441Z,6.50
2019-02-27T06:57:41.910Z,6.95
2019-02-27T07:00:23.790Z,6.58
2019-02-27T07:02:55.158Z,4.80
2019-02-27T07:05:22.531Z,5.05
2019-02-27T07:07:50.924Z,4.08
2019-02-27T07:10:19.849Z,3.83
2019-02-27T07:12:49.231Z,4.47
2019-02-27T07:15:19.812Z,4.00
2019-02-27T07:17:48.496Z,4.55
2019-02-27T07:20:17.100Z,4.58
2019-02-27T07:22:46.768Z,4.00
2019-02-27T07:25:18.871Z,4.53
2019-02-27T07:28:13.162Z,4.08
2019-02-27T07:30:42.628Z,3.60
2019-02-27T07:33:11.833Z,4.20
2019-02-27T07:35:40.580Z,3.42
2019-02-27T07:38:08.915Z,4.37
2019-02-27T07:40:37.335Z,3.92
2019-02-27T07:43:06.439Z,4.03
2019-02-27T07:45:35.144Z,3.22
2019-02-27T07:48:03.752Z,3.30
2019-02-27T07:50:32.660Z,3.35
2019-02-27T07:53:01.444Z,3.12
2019-02-27T07:55:29.926Z,3.33
2019-02-27T07:57:59.219Z,3.62
2019-02-27T08:00:27.800Z,3.47
2019-02-27T08:02:56.490Z,3.65
2019-02-27T08:05:28.276Z,3.37
2019-02-27T08:07:54.958Z,3.30
2019-02-27T08:10:24.610Z,3.55
2019-02-27T08:12:55.504Z,3.30
2019-02-27T08:15:23.115Z,3.58
2019-02-27T08:17:51.571Z,3.33
2019-02-27T08:20:21.222Z,3.67
2019-02-27T08:22:49.876Z,3.70
2019-02-27T08:25:18.661Z,3.35
2019-02-27T08:27:47.035Z,4.37
2019-02-27T08:30:18.238Z,4.33
2019-02-27T08:32:46.641Z,3.92
2019-02-27T08:35:16.604Z,4.20
2019-02-27T08:37:45.307Z,4.25
2019-02-27T08:40:14.467Z,4.45
2019-02-27T08:42:42.799Z,4.30
2019-02-27T08:45:19.881Z,4.17
2019-02-27T08:47:44.363Z,4.20
2019-02-27T08:50:14.922Z,4.70
2019-02-27T08:52:44.525Z,5.30
2019-02-27T08:55:19.093Z,5.35
2019-02-27T08:57:44.845Z,5.08
2019-02-27T09:00:23.303Z,5.50
2019-02-27T09:02:52.556Z,5.42
2019-02-27T09:05:21.216Z,5.30
2019-02-27T09:07:49.729Z,6.33
2019-02-27T09:10:23.301Z,6.05
2019-02-27T09:12:52.799Z,6.80
2019-02-27T09:15:21.413Z,6.15
2019-02-27T09:17:49.874Z,6.30
2019-02-27T09:20:20.437Z,7.50
2019-02-27T09:22:49.592Z,6.92
2019-02-27T09:25:18.186Z,7.45
2019-02-27T09:27:47.198Z,7.83
2019-02-27T09:30:28.777Z,9.50
2019-02-27T09:32:54.072Z,7.85
2019-02-27T09:35:22.561Z,7.83
2019-02-27T09:37:51.998Z,8.20
2019-02-27T09:40:29.602Z,8.23
2019-02-27T09:42:58.680Z,8.55
2019-02-27T09:45:29.578Z,8.80
2019-02-27T09:47:59.955Z,8.70
2019-02-27T09:50:32.812Z,8.28
2019-02-27T09:53:03.708Z,9.15
2019-02-27T09:55:31.349Z,9.13
2019-02-27T09:57:59.757Z,9.08
2019-02-27T10:00:35.389Z,8.35
2019-02-27T10:03:03.707Z,9.15
2019-02-27T10:05:36.336Z,8.40
2019-02-27T10:08:02.712Z,9.35
2019-02-27T10:10:31.388Z,8.50
2019-02-27T10:12:59.993Z,7.65
2019-02-27T10:15:28.402Z,7.37
2019-02-27T10:17:56.911Z,7.60
2019-02-27T10:20:25.215Z,7.40
2019-02-27T10:22:54.379Z,8.53
2019-02-27T10:25:22.938Z,9.30
2019-02-27T10:27:51.545Z,8.80
2019-02-27T10:30:20.302Z,7.90
2019-02-27T10:32:48.798Z,9.90
2019-02-27T10:35:17.377Z,7.25
2019-02-27T10:37:50.360Z,7.22
2019-02-27T10:40:17.996Z,7.50
2019-02-27T10:42:46.318Z,9.28
2019-02-27T10:45:15.102Z,9.08
2019-02-27T10:47:43.675Z,8.13
2019-02-27T10:50:13.155Z,8.73
2019-02-27T10:52:41.811Z,7.65
2019-02-27T10:55:14.231Z,8.03
2019-02-27T10:57:42.797Z,8.55
2019-02-27T11:00:32.214Z,8.45
2019-02-27T11:03:01.292Z,7.55
2019-02-27T11:05:32.314Z,8.20
2019-02-27T11:08:01.100Z,8.48
2019-02-27T11:10:31.521Z,7.97
2019-02-27T11:13:05.690Z,8.83
2019-02-27T11:15:30.771Z,8.13
2019-02-27T11:18:04.137Z,8.50
2019-02-27T11:20:29.665Z,7.28
2019-02-27T11:22:58.479Z,7.90
2019-02-27T11:25:31.197Z,7.20
2019-02-27T11:28:18.962Z,7.78
2019-02-27T11:30:47.613Z,7.37
2019-02-27T11:33:25.727Z,6.95
2019-02-27T11:35:46.724Z,6.58
2019-02-27T11:38:15.123Z,7.20
2019-02-27T11:40:43.630Z,8.30
2019-02-27T11:43:12.013Z,8.03
2019-02-27T11:45:40.353Z,8.75
2019-02-27T11:48:08.750Z,8.28
2019-02-27T11:50:37.160Z,8.35
2019-02-27T11:53:05.535Z,8.73
2019-02-27T11:55:34.124Z,9.33
2019-02-27T11:58:05.381Z,8.10
2019-02-27T12:00:34.399Z,8.30
2019-02-27T12:03:02.808Z,8.23
2019-02-27T12:05:34.094Z,7.95
2019-02-27T12:08:01.370Z,8.88
2019-02-27T12:10:31.001Z,8.13
2019-02-27T12:13:00.820Z,8.28
2019-02-27T12:15:29.803Z,8.90
2019-02-27T12:18:00.494Z,9.43
2019-02-27T12:20:28.272Z,10.32
2019-02-27T12:22:56.801Z,8.03
2019-02-27T12:25:29.126Z,8.15
2019-02-27T12:27:58.235Z,7.90
2019-02-27T12:30:28.257Z,8.05
2019-02-27T12:32:57.188Z,7.58
2019-02-27T12:35:27.694Z,8.75
2019-02-27T12:37:56.458Z,8.63
2019-02-27T12:40:25.216Z,8.43
2019-02-27T12:42:53.723Z,8.48
2019-02-27T12:45:25.848Z,8.28
2019-02-27T12:47:54.448Z,8.45
2019-02-27T12:50:26.838Z,8.80
2019-02-27T12:52:54.141Z,8.35
2019-02-27T12:55:22.605Z,7.60
2019-02-27T12:57:52.488Z,8.10
2019-02-27T13:00:24.290Z,7.83
2019-02-27T13:02:52.845Z,7.20
2019-02-27T13:05:21.313Z,8.03
2019-02-27T13:07:49.668Z,7.47
2019-02-27T13:10:20.513Z,7.70
2019-02-27T13:12:49.274Z,7.60
2019-02-27T13:15:21.580Z,8.48
2019-02-27T13:17:49.920Z,8.65
2019-02-27T13:20:20.282Z,7.62
2019-02-27T13:22:48.801Z,6.90
2019-02-27T13:25:17.354Z,6.30
2019-02-27T13:27:45.856Z,7.72
2019-02-27T13:30:16.545Z,7.33
2019-02-27T13:32:44.970Z,6.62
2019-02-27T13:35:13.367Z,7.45
2019-02-27T13:37:44.555Z,7.45
2019-02-27T13:40:17.240Z,7.87
2019-02-27T13:42:45.558Z,7.47
2019-02-27T13:45:22.083Z,7.97
2019-02-27T13:47:50.450Z,9.25
2019-02-27T13:50:22.399Z,7.40
2019-02-27T13:52:50.710Z,8.50
2019-02-27T13:55:21.407Z,7.10
2019-02-27T13:57:49.987Z,7.30
2019-02-27T14:00:26.712Z,7.83
2019-02-27T14:02:55.354Z,6.65
2019-02-27T14:05:23.704Z,7.25
2019-02-27T14:07:57.107Z,7.40
2019-02-27T14:10:25.549Z,7.35
2019-02-27T14:12:54.058Z,6.95
2019-02-27T14:15:26.902Z,6.67
2019-02-27T14:17:52.962Z,7.37
2019-02-27T14:20:22.420Z,7.30
2019-02-27T14:22:50.934Z,7.08
2019-02-27T14:25:32.925Z,6.70
2019-02-27T14:28:00.073Z,8.38
2019-02-27T14:30:37.405Z,7.22
2019-02-27T14:33:06.198Z,6.37
2019-02-27T14:35:36.375Z,7.42
2019-02-27T14:38:04.789Z,7.05
2019-02-27T14:40:37.619Z,6.30
2019-02-27T14:43:03.674Z,7.08
2019-02-27T14:45:32.014Z,7.78
2019-02-27T14:48:00.777Z,6.87
2019-02-27T14:50:33.565Z,7.75
2019-02-27T14:52:59.616Z,7.60
2019-02-27T14:55:28.026Z,6.53
2019-02-27T14:57:56.355Z,7.00
2019-02-27T15:00:30.597Z,6.55
2019-02-27T15:05:26.532Z,6.87
2019-02-27T15:07:55.035Z,6.28
2019-02-27T15:10:23.885Z,6.72
2019-02-27T15:12:55.185Z,6.85
2019-02-27T15:15:30.673Z,7.28
2019-02-27T15:17:58.995Z,6.58
2019-02-27T15:20:28.618Z,7.50
2019-02-27T15:22:57.138Z,6.53
2019-02-27T15:25:27.475Z,6.25
2019-02-27T15:27:58.282Z,6.15
2019-02-27T15:30:27.862Z,7.00
2019-02-27T15:32:56.182Z,6.72
2019-02-27T15:35:24.716Z,6.62
2019-02-27T15:37:53.246Z,6.85
2019-02-27T15:40:28.630Z,5.85
2019-02-27T15:42:53.489Z,5.65
2019-02-27T15:45:26.039Z,6.30
2019-02-27T15:47:54.570Z,5.75
2019-02-27T15:50:36.036Z,6.28
2019-02-27T15:53:04.523Z,6.25
2019-02-27T15:55:34.946Z,6.25
2019-02-27T15:58:03.309Z,6.17
2019-02-27T16:00:31.669Z,6.20
2019-02-27T16:03:00.027Z,6.65
2019-02-27T16:05:31.417Z,6.37
2019-02-27T16:07:58.735Z,6.17
2019-02-27T16:10:28.106Z,6.30
2019-02-27T16:12:59.673Z,6.50
2019-02-27T16:15:26.867Z,6.60
2019-02-27T16:17:55.413Z,7.28
2019-02-27T16:20:26.071Z,6.95
2019-02-27T16:22:54.947Z,6.85
2019-02-27T16:25:25.584Z,6.92
2019-02-27T16:27:53.940Z,6.20
2019-02-27T16:30:31.275Z,6.80
2019-02-27T16:32:57.292Z,7.08
2019-02-27T16:35:26.333Z,7.00
2019-02-27T16:37:57.666Z,7.40
2019-02-27T16:40:27.299Z,8.25
2019-02-27T16:42:55.770Z,7.40
2019-02-27T16:45:33.893Z,8.05
2019-02-27T16:48:00.321Z,8.73
2019-02-27T16:50:30.549Z,7.78
2019-02-27T16:52:59.170Z,6.62
2019-02-27T16:55:28.281Z,7.20
2019-02-27T16:57:57.816Z,8.03
2019-02-27T17:00:31.711Z,7.08
2019-02-27T17:03:00.392Z,6.97
2019-02-27T17:05:29.081Z,7.28
2019-02-27T17:08:02.096Z,7.97
2019-02-27T17:10:32.822Z,9.38
2019-02-27T17:13:01.539Z,8.50
2019-02-27T17:15:34.691Z,9.25
2019-02-27T17:18:00.440Z,8.83
2019-02-27T17:20:29.214Z,8.38
2019-02-27T17:22:57.671Z,10.43
2019-02-27T17:25:28.586Z,10.68
2019-02-27T17:27:56.150Z,11.55
2019-02-27T17:30:29.427Z,11.08
2019-02-27T17:32:57.756Z,10.40
2019-02-27T17:35:26.336Z,8.70
2019-02-27T17:37:54.816Z,9.50
2019-02-27T17:40:23.160Z,10.78
2019-02-27T17:42:53.612Z,11.48
2019-02-27T17:45:24.167Z,9.35
2019-02-27T17:47:52.989Z,9.80
2019-02-27T17:50:21.403Z,10.55
2019-02-27T17:52:49.924Z,10.10
2019-02-27T17:55:19.048Z,10.65
2019-02-27T17:57:47.449Z,9.48
2019-02-27T18:00:31.396Z,8.90
2019-02-27T18:03:00.014Z,9.08
2019-02-27T18:05:28.789Z,10.58
2019-02-27T18:07:57.390Z,8.63
2019-02-27T18:10:25.810Z,9.18
2019-02-27T18:12:54.599Z,9.63
2019-02-27T18:15:24.423Z,8.68
2019-02-27T18:17:53.029Z,9.63
2019-02-27T18:20:24.916Z,11.55
2019-02-27T18:22:51.889Z,14.35
2019-02-27T18:25:20.426Z,13.45
2019-02-27T18:27:48.807Z,13.08
2019-02-27T18:30:23.506Z,10.93
2019-02-27T18:32:52.159Z,10.18
2019-02-27T18:35:20.597Z,11.75
2019-02-27T18:37:53.089Z,11.05
2019-02-27T18:40:19.805Z,11.53
2019-02-27T18:42:48.409Z,11.90
2019-02-27T18:45:22.351Z,11.88
2019-02-27T18:47:50.842Z,11.38
2019-02-27T18:50:19.611Z,11.22
2019-02-27T18:52:48.313Z,11.20
2019-02-27T18:55:16.813Z,11.35
2019-02-27T18:57:47.244Z,11.88
2019-02-27T19:00:24.479Z,15.32
2019-02-27T19:03:04.178Z,15.35
2019-02-27T19:05:32.503Z,11.80
2019-02-27T19:08:00.861Z,11.55
2019-02-27T19:10:29.258Z,12.03
2019-02-27T19:12:59.968Z,10.78
2019-02-27T19:15:28.049Z,10.18
2019-02-27T19:17:56.406Z,11.40
2019-02-27T19:20:27.861Z,11.75
2019-02-27T19:22:56.257Z,13.10
2019-02-27T19:25:25.023Z,12.37
2019-02-27T19:27:53.421Z,13.00
2019-02-27T19:30:22.259Z,12.98
2019-02-27T19:32:50.883Z,12.95
2019-02-27T19:35:21.874Z,13.00
2019-02-27T19:37:49.690Z,11.80
2019-02-27T19:40:19.600Z,13.20
2019-02-27T19:42:56.785Z,12.20
2019-02-27T19:45:25.622Z,11.63
2019-02-27T19:47:55.775Z,12.37
2019-02-27T19:50:24.505Z,11.60
2019-02-27T19:52:53.171Z,10.78
2019-02-27T19:55:26.453Z,11.05
2019-02-27T19:57:52.050Z,10.55
2019-02-27T20:00:25.903Z,10.58
2019-02-27T20:02:57.450Z,10.28
2019-02-27T20:05:24.370Z,9.53
2019-02-27T20:07:53.202Z,9.93
2019-02-27T20:10:21.718Z,9.63
2019-02-27T20:12:52.678Z,9.65
2019-02-27T20:15:23.342Z,10.43
2019-02-27T20:17:52.052Z,10.90
2019-02-27T20:20:21.266Z,10.90
2019-02-27T20:22:50.284Z,11.15
2019-02-27T20:25:27.836Z,11.78
2019-02-27T20:27:57.817Z,11.30
2019-02-27T20:30:26.651Z,13.50
2019-02-27T20:32:55.064Z,12.55
2019-02-27T20:35:23.651Z,11.22
2019-02-27T20:37:51.987Z,9.60
2019-02-27T20:40:20.797Z,9.48
2019-02-27T20:42:50.395Z,9.63
2019-02-27T20:45:21.726Z,8.75
2019-02-27T20:47:51.289Z,9.20
2019-02-27T20:50:45.553Z,8.18
2019-02-27T20:53:14.641Z,7.92
2019-02-27T20:55:42.988Z,8.05
2019-02-27T20:58:16.130Z,7.83
2019-02-27T21:00:41.808Z,7.20
2019-02-27T21:03:10.180Z,7.42
2019-02-27T21:05:41.091Z,8.50
2019-02-27T21:08:09.103Z,6.50
2019-02-27T21:10:38.053Z,6.47
2019-02-27T21:13:06.414Z,6.30
2019-02-27T21:15:34.914Z,6.17
2019-02-27T21:18:03.270Z,6.78
2019-02-27T21:20:33.257Z,6.87
2019-02-27T21:23:01.789Z,7.10
2019-02-27T21:25:30.497Z,7.00
2019-02-27T21:27:59.118Z,7.17
2019-02-27T21:30:27.874Z,6.90
2019-02-27T21:32:56.380Z,7.25
2019-02-27T21:35:28.735Z,6.50
2019-02-27T21:37:54.818Z,5.45
2019-02-27T21:40:23.374Z,6.20
2019-02-27T21:42:52.012Z,5.95
2019-02-27T21:45:21.972Z,5.45
2019-02-27T21:47:51.713Z,5.75
2019-02-27T21:50:23.218Z,5.53
2019-02-27T21:52:54.524Z,5.30
2019-02-27T21:55:22.183Z,6.10
2019-02-27T21:57:53.802Z,5.87
2019-02-27T22:00:28.893Z,5.80
2019-02-27T22:02:58.120Z,5.87
2019-02-27T22:05:26.460Z,6.22
2019-02-27T22:07:54.807Z,6.28
2019-02-27T22:10:23.222Z,7.05
2019-02-27T22:12:51.718Z,6.58
2019-02-27T22:15:27.783Z,6.37
2019-02-27T22:17:56.259Z,5.25
2019-02-27T22:20:25.786Z,5.95
2019-02-27T22:22:54.961Z,7.90
2019-02-27T22:25:24.021Z,8.43
2019-02-27T22:27:52.437Z,6.70
2019-02-27T22:30:21.687Z,6.50
2019-02-27T22:32:50.362Z,7.45
2019-02-27T22:35:19.057Z,10.00
2019-02-27T22:37:51.312Z,8.70
2019-02-27T22:40:19.147Z,7.95
2019-02-27T22:42:48.458Z,6.80
2019-02-27T22:45:18.702Z,7.35
2019-02-27T22:47:47.354Z,6.50
2019-02-27T22:50:17.220Z,7.00
2019-02-27T22:52:45.694Z,7.53
2019-02-27T22:55:14.041Z,7.08
2019-02-27T22:57:42.543Z,6.62
2019-02-27T23:00:45.799Z,6.22
2019-02-27T23:03:14.640Z,5.67
2019-02-27T23:05:42.967Z,5.67
2019-02-27T23:08:11.477Z,5.90
2019-02-27T23:10:39.831Z,5.83
2019-02-27T23:13:12.467Z,6.22
2019-02-27T23:15:39.236Z,5.92
2019-02-27T23:18:07.641Z,5.60
2019-02-27T23:20:35.957Z,5.75
2019-02-27T23:23:04.367Z,6.42
2019-02-27T23:25:32.890Z,5.65
2019-02-27T23:28:02.066Z,5.87
2019-02-27T23:30:30.862Z,4.95
2019-02-27T23:33:02.342Z,5.55
2019-02-27T23:35:31.280Z,5.92
2019-02-27T23:38:02.896Z,5.55
2019-02-27T23:40:29.917Z,6.05
2019-02-27T23:43:02.239Z,6.30
2019-02-27T23:45:28.760Z,5.50
2019-02-27T23:47:59.272Z,5.72
2019-02-27T23:50:27.549Z,5.75
2019-02-27T23:52:56.221Z,5.53
2019-02-27T23:55:24.566Z,5.25
2019-02-27T23:57:57.550Z,5.65
